»·PEaware :: N210AR KBUR-KSNA

N210AR :: KBUR-KSNA

FLIGHT INFORMATION

Flight Status: Arrived
Operator: Privately registered:
United States
More flights under this callsign
Pilot: Max S. (16657)
Aircraft: CESSNA 172 SKYHAWK
(C172)
More flights by this aircraft type
Origin: KBUR Bob Hope-Burbank
United States
Destination: KSNA John Wayne-Orange Co
United States
More flights between these airports :: More routes between these airports
Route:
File this flight plan on PilotEdge
Remarks:
Altitude:
(Current/Filed)
2,500ft
Speed:
(Current/Filed)
100kts
Departed: 10-Jun-20 09:23 AM
Arrived: 10-Jun-20 10:01 AM
Distance/Time
Traveled:
40nm/0:38
Distance/Time
To Go:
Arrived

Flight Plot

Page will automatically refresh every two minutes.


Map Options




Map Legend


Flown Route
Filed Route
Departure Airport
Arrival Airport
Navaid (VOR, NDB)
Fix

Horizontal Profiles

Position Reports

Time Latitude Longitude Heading Altitude Ground
Speed
10-Jun-20 09:01 34.196456 -118.367895 180 722ft 0kts
10-Jun-20 09:02 34.196456 -118.367895 180 722ft 0kts
10-Jun-20 09:03 34.196456 -118.367895 180 722ft 0kts
10-Jun-20 09:04 34.196416 -118.367895 180 722ft 0kts
10-Jun-20 09:05 34.196416 -118.367895 180 722ft 0kts
10-Jun-20 09:06 34.196416 -118.367895 180 722ft 0kts
10-Jun-20 09:07 34.196416 -118.367895 180 722ft 0kts
10-Jun-20 09:08 34.196416 -118.367895 180 722ft 0kts
10-Jun-20 09:09 34.196416 -118.367895 180 722ft 0kts
10-Jun-20 09:10 34.196416 -118.367895 180 722ft 0kts
10-Jun-20 09:11 34.196416 -118.367895 180 722ft 0kts
10-Jun-20 09:12 34.196415 -118.367895 180 722ft 0kts
10-Jun-20 09:13 34.196415 -118.367895 180 722ft 0kts
10-Jun-20 09:14 34.196415 -118.367895 180 722ft 0kts
10-Jun-20 09:15 34.196415 -118.367895 180 722ft 0kts
10-Jun-20 09:16 34.196415 -118.367895 180 722ft 0kts
10-Jun-20 09:17 34.196415 -118.367895 180 722ft 0kts
10-Jun-20 09:18 34.196512 -118.368735 2 723ft 6kts
10-Jun-20 09:19 34.196926 -118.367082 271 723ft 8kts
10-Jun-20 09:20 34.197046 -118.368882 324 724ft 0kts
10-Jun-20 09:21 34.197047 -118.368882 324 724ft 0kts
10-Jun-20 09:22 34.197858 -118.363477 90 768ft 71kts
10-Jun-20 09:23 34.189305 -118.353850 264 1607ft 84kts
10-Jun-20 09:24 34.175297 -118.372516 205 2488ft 87kts
10-Jun-20 09:25 34.149041 -118.384478 204 2589ft 104kts
10-Jun-20 09:26 34.122666 -118.400243 204 2484ft 98kts
10-Jun-20 09:27 34.097400 -118.414739 205 2593ft 110kts
10-Jun-20 09:28 34.065873 -118.429933 196 2493ft 124kts
10-Jun-20 09:29 34.033967 -118.444974 201 2451ft 123kts
10-Jun-20 09:30 34.002207 -118.446070 161 2586ft 116kts
10-Jun-20 09:31 33.973063 -118.426394 151 2487ft 118kts
10-Jun-20 09:32 33.945847 -118.404529 148 2479ft 118kts
10-Jun-20 09:33 33.919461 -118.380930 151 2460ft 117kts
10-Jun-20 09:34 33.892183 -118.360822 140 2565ft 111kts
10-Jun-20 09:35 33.872328 -118.331890 123 2549ft 122kts
10-Jun-20 09:36 33.858833 -118.294500 108 2445ft 116kts
10-Jun-20 09:37 33.843860 -118.261142 128 2478ft 110kts
10-Jun-20 09:38 33.814514 -118.251229 169 2553ft 110kts
10-Jun-20 09:39 33.784562 -118.240902 155 2578ft 113kts
10-Jun-20 09:40 33.759036 -118.219465 122 2599ft 113kts
10-Jun-20 09:41 33.743009 -118.186613 119 2638ft 114kts
10-Jun-20 09:42 33.729743 -118.150727 110 2583ft 120kts
10-Jun-20 09:43 33.715913 -118.114684 123 2595ft 120kts
10-Jun-20 09:44 33.705520 -118.075403 104 2490ft 124kts
10-Jun-20 09:45 33.701344 -118.035030 93 2490ft 121kts
10-Jun-20 09:46 33.699455 -117.994910 95 2371ft 103kts
10-Jun-20 09:47 33.683501 -117.984919 242 1983ft 104kts
10-Jun-20 09:48 33.688080 -118.017232 344 2138ft 106kts
10-Jun-20 09:49 33.688898 -117.988930 119 1958ft 102kts
10-Jun-20 09:50 33.664258 -117.981361 195 1801ft 103kts
10-Jun-20 09:51 33.639601 -117.987986 213 2033ft 93kts
10-Jun-20 09:52 33.652865 -117.997703 16 1922ft 107kts
10-Jun-20 09:53 33.679914 -117.983947 11 1905ft 104kts
10-Jun-20 09:54 33.706870 -117.973087 25 1941ft 102kts
10-Jun-20 09:55 33.707550 -117.944721 121 1702ft 108kts
10-Jun-20 09:56 33.692194 -117.914102 124 1149ft 95kts
10-Jun-20 09:57 33.681214 -117.888294 110 1031ft 87kts
10-Jun-20 09:58 33.696437 -117.871862 21 963ft 61kts
10-Jun-20 09:59 33.690146 -117.860003 202 536ft 68kts
10-Jun-20 10:00 33.676700 -117.868107 214 60ft 29kts
10-Jun-20 10:01 33.671178 -117.871653 206 60ft 23kts
10-Jun-20 10:02 33.669267 -117.871762 136 60ft 0kts
10-Jun-20 10:03 33.668006 -117.871651 130 60ft 8kts
10-Jun-20 10:04 33.667482 -117.870352 356 60ft 0kts
10-Jun-20 10:05 33.667831 -117.870582 209 60ft 0kts

Navigation Log

Ident Type
Flight plan parsing failed, navigation log unavailable